createdAt,value
2018-12-08T00:01:02.057Z,7.00
2018-12-08T00:03:31.250Z,7.00
2018-12-08T00:06:03.620Z,7.00
2018-12-08T00:08:38.710Z,7.00
2018-12-08T00:14:05.239Z,7.10
2018-12-08T00:16:40.267Z,7.10
2018-12-08T00:19:08.425Z,7.10
2018-12-08T00:21:36.540Z,7.10
2018-12-08T00:24:04.647Z,7.10
2018-12-08T00:26:32.761Z,7.10
2018-12-08T00:29:00.884Z,7.10
2018-12-08T00:31:34.765Z,7.10
2018-12-08T00:34:02.924Z,7.10
2018-12-08T00:36:31.067Z,7.10
2018-12-08T00:39:00.530Z,7.10
2018-12-08T00:41:36.595Z,7.10
2018-12-08T00:44:04.787Z,7.00
2018-12-08T00:49:32.755Z,6.90
2018-12-08T00:52:00.845Z,6.80
2018-12-08T00:54:28.923Z,6.60
2018-12-08T00:56:57.034Z,6.60
2018-12-08T00:59:27.211Z,6.50
2018-12-08T01:01:55.295Z,6.40
2018-12-08T01:04:23.364Z,6.30
2018-12-08T01:06:52.473Z,6.30
2018-12-08T01:09:20.566Z,6.30
2018-12-08T01:11:48.707Z,6.30
2018-12-08T01:14:16.774Z,6.30
2018-12-08T01:16:45.284Z,6.30
2018-12-08T01:19:13.311Z,6.30
2018-12-08T01:21:41.413Z,6.30
2018-12-08T01:24:09.490Z,6.30
2018-12-08T01:26:37.554Z,6.40
2018-12-08T01:29:06.468Z,6.40
2018-12-08T01:31:34.533Z,6.40
2018-12-08T01:34:02.727Z,6.40
2018-12-08T01:36:30.935Z,6.40
2018-12-08T01:38:59.044Z,6.40
2018-12-08T01:41:27.145Z,6.40
2018-12-08T01:43:55.254Z,6.40
2018-12-08T01:46:23.462Z,6.40
2018-12-08T01:48:51.622Z,6.40
2018-12-08T01:51:19.830Z,6.40
2018-12-08T01:53:47.927Z,6.40
2018-12-08T01:56:16.097Z,6.40
2018-12-08T01:58:44.223Z,6.40
2018-12-08T02:01:12.363Z,6.40
2018-12-08T02:03:40.433Z,6.40
2018-12-08T02:06:08.528Z,6.30
2018-12-08T02:08:36.664Z,6.40
2018-12-08T02:11:06.878Z,6.40
2018-12-08T02:13:35.073Z,6.40
2018-12-08T02:16:03.211Z,6.40
2018-12-08T02:21:34.840Z,6.40
2018-12-08T02:24:02.945Z,6.40
2018-12-08T02:29:41.015Z,6.40
2018-12-08T02:35:11.895Z,6.40
2018-12-08T02:37:40.019Z,6.40
2018-12-08T02:40:08.597Z,6.50
2018-12-08T02:42:36.733Z,6.50
2018-12-08T02:45:04.915Z,6.50
2018-12-08T02:47:33.072Z,6.50
2018-12-08T02:50:01.281Z,6.50
2018-12-08T02:52:29.437Z,6.50
2018-12-08T02:54:57.513Z,6.50
2018-12-08T02:57:25.637Z,6.50
2018-12-08T02:59:53.716Z,6.50
2018-12-08T03:02:21.909Z,6.50
2018-12-08T03:04:50.070Z,6.60
2018-12-08T03:07:18.155Z,6.50
2018-12-08T03:09:46.251Z,6.60
2018-12-08T03:12:14.340Z,6.60
2018-12-08T03:14:42.431Z,6.60
2018-12-08T03:17:10.521Z,6.60
2018-12-08T03:19:38.631Z,6.60
2018-12-08T03:22:06.813Z,6.60
2018-12-08T03:24:34.902Z,6.60
2018-12-08T03:27:03.453Z,6.60
2018-12-08T03:29:31.530Z,6.60
2018-12-08T03:31:59.679Z,6.50
2018-12-08T03:34:27.781Z,6.50
2018-12-08T03:36:55.897Z,6.50
2018-12-08T03:39:23.997Z,6.50
2018-12-08T03:41:52.160Z,6.50
2018-12-08T03:44:20.221Z,6.50
2018-12-08T03:46:48.320Z,6.50
2018-12-08T03:49:16.396Z,6.50
2018-12-08T03:51:44.596Z,6.50
2018-12-08T03:54:12.695Z,6.50
2018-12-08T03:56:40.768Z,6.50
2018-12-08T03:59:08.856Z,6.50
2018-12-08T04:01:36.943Z,6.50
2018-12-08T04:04:05.063Z,6.50
2018-12-08T04:06:33.200Z,6.50
2018-12-08T04:09:01.288Z,6.50
2018-12-08T04:11:29.591Z,6.50
2018-12-08T04:13:57.724Z,6.50
2018-12-08T04:16:25.815Z,6.50
2018-12-08T04:18:53.884Z,6.50
2018-12-08T04:21:22.119Z,6.50
2018-12-08T04:23:50.229Z,6.50
2018-12-08T04:26:19.124Z,6.50
2018-12-08T04:28:47.214Z,6.40
2018-12-08T04:31:15.388Z,6.40
2018-12-08T04:33:43.504Z,6.40
2018-12-08T04:36:11.591Z,6.40
2018-12-08T04:38:39.683Z,6.40
2018-12-08T04:41:07.840Z,6.50
2018-12-08T04:43:35.939Z,6.50
2018-12-08T04:46:03.984Z,6.50
2018-12-08T04:48:32.063Z,6.50
2018-12-08T04:51:00.135Z,6.60
2018-12-08T04:53:28.343Z,6.60
2018-12-08T04:55:56.459Z,6.60
2018-12-08T04:58:24.635Z,6.60
2018-12-08T05:00:52.717Z,6.70
2018-12-08T05:03:20.807Z,6.70
2018-12-08T05:05:48.878Z,6.70
2018-12-08T05:08:16.986Z,6.70
2018-12-08T05:10:45.073Z,6.70
2018-12-08T05:13:13.151Z,6.80
2018-12-08T05:15:41.231Z,6.80
2018-12-08T05:18:09.367Z,6.70
2018-12-08T05:20:37.438Z,6.70
2018-12-08T05:23:05.504Z,6.70
2018-12-08T05:25:33.611Z,6.70
2018-12-08T05:28:01.765Z,6.70
2018-12-08T05:30:29.864Z,6.80
2018-12-08T05:32:58.034Z,6.80
2018-12-08T05:35:27.140Z,6.70
2018-12-08T05:37:55.303Z,6.80
2018-12-08T05:40:23.559Z,6.80
2018-12-08T05:42:51.652Z,6.80
2018-12-08T05:45:19.775Z,6.80
2018-12-08T05:47:47.931Z,6.80
2018-12-08T05:50:16.068Z,6.80
2018-12-08T05:52:44.205Z,6.80
2018-12-08T05:55:12.373Z,6.80
2018-12-08T05:57:40.448Z,6.80
2018-12-08T06:00:08.835Z,6.80
2018-12-08T06:02:36.925Z,6.80
2018-12-08T06:05:05.587Z,6.90
2018-12-08T06:07:33.688Z,6.90
2018-12-08T06:10:01.802Z,6.80
2018-12-08T06:12:30.020Z,6.80
2018-12-08T06:14:58.344Z,6.70
2018-12-08T06:17:26.482Z,6.80
2018-12-08T06:19:54.563Z,6.80
2018-12-08T06:22:22.667Z,6.80
2018-12-08T06:24:50.909Z,6.80
2018-12-08T06:27:25.047Z,6.80
2018-12-08T06:29:53.196Z,6.80
2018-12-08T06:32:21.465Z,6.80
2018-12-08T06:34:49.566Z,6.80
2018-12-08T06:40:16.803Z,6.80
2018-12-08T06:42:44.880Z,6.80
2018-12-08T06:45:13.015Z,6.80
2018-12-08T06:47:41.085Z,6.80
2018-12-08T06:50:09.195Z,6.80
2018-12-08T06:52:37.372Z,6.80
2018-12-08T06:55:05.601Z,6.80
2018-12-08T06:57:33.709Z,6.80
2018-12-08T07:00:01.953Z,6.80
2018-12-08T07:02:30.089Z,6.70
2018-12-08T07:04:58.212Z,6.60
2018-12-08T07:07:26.359Z,6.50
2018-12-08T07:14:58.799Z,6.40
2018-12-08T07:17:26.992Z,6.30
2018-12-08T07:19:55.063Z,6.20
2018-12-08T07:22:23.188Z,6.20
2018-12-08T07:24:51.329Z,6.20
2018-12-08T07:27:19.448Z,6.20
2018-12-08T07:48:24.219Z,7.00
2018-12-08T07:50:53.165Z,7.10
2018-12-08T07:56:38.024Z,7.30
2018-12-08T08:04:55.891Z,7.40
2018-12-08T08:07:24.827Z,7.50
2018-12-08T08:09:53.757Z,7.50
2018-12-08T08:12:22.795Z,7.50
2018-12-08T08:14:52.080Z,7.60
2018-12-08T08:17:21.186Z,7.60
2018-12-08T08:19:50.294Z,7.70
2018-12-08T08:22:19.213Z,7.70
2018-12-08T08:24:48.184Z,7.80
2018-12-08T08:27:17.051Z,7.90
2018-12-08T08:29:46.000Z,7.90
2018-12-08T08:32:14.907Z,8.00
2018-12-08T08:34:43.800Z,8.00
2018-12-08T08:37:12.761Z,8.00
2018-12-08T08:39:41.646Z,8.00
2018-12-08T08:42:10.619Z,8.00
2018-12-08T08:44:39.592Z,8.10
2018-12-08T08:47:08.530Z,8.10
2018-12-08T08:49:37.505Z,8.10
2018-12-08T08:52:19.020Z,8.10
2018-12-08T08:58:03.500Z,8.10
2018-12-08T09:00:32.509Z,8.20
2018-12-08T09:03:01.436Z,8.20
2018-12-08T09:05:30.489Z,8.20
2018-12-08T09:08:17.460Z,8.20
2018-12-08T09:10:50.152Z,8.20
2018-12-08T09:13:19.027Z,8.20
2018-12-08T09:15:49.830Z,8.20
2018-12-08T09:18:26.045Z,8.20
2018-12-08T09:23:55.648Z,8.20
2018-12-08T09:26:31.125Z,8.30
2018-12-08T09:29:06.415Z,8.30
2018-12-08T09:31:48.788Z,8.20
2018-12-08T09:34:19.571Z,8.30
2018-12-08T09:36:48.504Z,8.30
2018-12-08T09:39:17.426Z,8.30
2018-12-08T09:41:46.482Z,8.40
2018-12-08T09:44:15.555Z,8.40
2018-12-08T09:46:44.613Z,8.40
2018-12-08T09:49:13.532Z,8.30
2018-12-08T09:51:42.792Z,8.40
2018-12-08T09:54:11.707Z,8.50
2018-12-08T09:56:40.695Z,8.50
2018-12-08T09:59:09.581Z,8.50
2018-12-08T10:01:38.487Z,8.60
2018-12-08T10:04:07.368Z,8.60
2018-12-08T10:06:36.439Z,8.60
2018-12-08T10:09:07.732Z,8.60
2018-12-08T10:11:36.720Z,8.80
2018-12-08T10:14:06.597Z,8.90
2018-12-08T10:16:35.581Z,9.00
2018-12-08T10:19:05.421Z,8.90
2018-12-08T10:21:34.410Z,8.90
2018-12-08T10:24:03.400Z,8.90
2018-12-08T10:26:32.381Z,8.90
2018-12-08T10:29:01.324Z,9.00
2018-12-08T10:31:30.343Z,9.00
2018-12-08T10:33:59.352Z,9.00
2018-12-08T10:36:28.417Z,9.00
2018-12-08T10:38:57.401Z,9.00
2018-12-08T10:41:26.363Z,9.10
2018-12-08T10:43:55.360Z,9.10
2018-12-08T10:46:24.371Z,9.20
2018-12-08T10:48:53.622Z,9.20
2018-12-08T10:51:22.544Z,9.20
2018-12-08T10:53:53.444Z,9.30
2018-12-08T10:56:22.562Z,9.20
2018-12-08T10:58:51.506Z,9.20
2018-12-08T11:01:24.311Z,9.20
2018-12-08T11:03:53.212Z,9.20
2018-12-08T11:06:34.478Z,9.30
2018-12-08T11:09:04.782Z,9.30
2018-12-08T11:11:37.584Z,9.50
2018-12-08T11:14:19.089Z,9.60
2018-12-08T11:16:48.149Z,9.80
2018-12-08T11:19:30.516Z,10.10
2018-12-08T11:22:03.312Z,10.30
2018-12-08T11:27:15.565Z,10.10
2018-12-08T11:29:44.457Z,9.90
2018-12-08T11:32:13.372Z,9.80
2018-12-08T11:34:42.448Z,9.70
2018-12-08T11:37:11.338Z,9.60
2018-12-08T11:39:40.252Z,9.60
2018-12-08T11:42:09.517Z,9.60
2018-12-08T11:44:38.935Z,9.70
2018-12-08T11:47:07.929Z,9.90
2018-12-08T11:49:37.925Z,10.10
2018-12-08T11:52:06.930Z,10.20
2018-12-08T11:54:35.948Z,10.30
2018-12-08T11:57:05.860Z,10.40
2018-12-08T11:59:34.833Z,10.30
2018-12-08T12:02:04.056Z,10.20
2018-12-08T12:04:33.133Z,10.10
2018-12-08T12:07:02.469Z,10.10
2018-12-08T12:09:31.369Z,10.00
2018-12-08T12:12:00.328Z,9.90
2018-12-08T12:14:39.509Z,9.90
2018-12-08T12:17:08.573Z,9.90
2018-12-08T12:19:37.583Z,9.90
2018-12-08T12:22:06.481Z,9.90
2018-12-08T12:24:35.484Z,9.80
2018-12-08T12:27:04.415Z,9.90
2018-12-08T12:29:33.311Z,10.00
2018-12-08T12:32:02.801Z,10.00
2018-12-08T12:34:31.716Z,10.10
2018-12-08T12:37:00.676Z,10.10
2018-12-08T12:39:29.648Z,10.10
2018-12-08T12:41:58.585Z,10.00
2018-12-08T12:44:27.573Z,9.90
2018-12-08T12:46:56.457Z,9.90
2018-12-08T12:49:25.336Z,9.90
2018-12-08T12:51:54.329Z,10.00
2018-12-08T12:54:23.309Z,10.10
2018-12-08T12:56:52.270Z,10.20
2018-12-08T12:59:21.191Z,10.30
2018-12-08T13:01:50.098Z,10.30
2018-12-08T13:04:19.027Z,10.20
2018-12-08T13:06:47.935Z,10.10
2018-12-08T13:09:16.832Z,10.10
2018-12-08T13:11:46.615Z,10.00
2018-12-08T13:14:15.518Z,10.10
2018-12-08T13:16:44.445Z,10.10
2018-12-08T13:19:13.378Z,10.00
2018-12-08T13:21:42.556Z,10.00
2018-12-08T13:24:11.474Z,9.90
2018-12-08T13:26:40.365Z,9.90
2018-12-08T13:29:09.300Z,9.80
2018-12-08T13:31:38.204Z,9.80
2018-12-08T13:34:18.331Z,9.70
2018-12-08T13:36:47.225Z,9.70
2018-12-08T13:39:16.093Z,9.70
2018-12-08T13:41:45.001Z,9.70
2018-12-08T13:44:23.853Z,9.60
2018-12-08T13:46:52.868Z,9.50
2018-12-08T13:49:21.757Z,9.50
2018-12-08T13:51:50.692Z,9.50
2018-12-08T13:54:30.794Z,9.40
2018-12-08T13:56:59.737Z,9.40
2018-12-08T13:59:28.622Z,9.40
2018-12-08T14:01:57.503Z,9.40
2018-12-08T14:04:26.397Z,9.40
2018-12-08T14:06:55.312Z,9.30
2018-12-08T14:09:24.209Z,9.30
2018-12-08T14:11:53.124Z,9.20
2018-12-08T14:14:22.046Z,9.10
2018-12-08T14:16:50.949Z,9.20
2018-12-08T14:19:19.853Z,9.10
2018-12-08T14:21:48.745Z,9.10
2018-12-08T14:24:17.721Z,9.20
2018-12-08T14:26:46.617Z,9.10
2018-12-08T14:29:15.605Z,9.00
2018-12-08T14:31:44.823Z,9.00
2018-12-08T14:34:14.090Z,8.90
2018-12-08T14:39:50.076Z,8.90
2018-12-08T14:48:33.296Z,8.80
2018-12-08T14:51:02.179Z,8.80
2018-12-08T14:53:31.080Z,8.80
2018-12-08T14:56:00.022Z,8.80
2018-12-08T14:58:28.953Z,8.80
2018-12-08T15:00:57.860Z,8.90
2018-12-08T15:03:27.243Z,8.90
2018-12-08T15:05:56.364Z,8.90
2018-12-08T15:08:25.324Z,8.80
2018-12-08T15:10:54.221Z,8.80
2018-12-08T15:13:23.097Z,8.80
2018-12-08T15:15:51.984Z,8.80
2018-12-08T15:18:20.863Z,8.80
2018-12-08T15:20:49.766Z,8.80
2018-12-08T15:23:18.767Z,8.90
2018-12-08T15:25:47.759Z,8.90
2018-12-08T15:28:17.674Z,8.90
2018-12-08T15:30:46.757Z,8.90
2018-12-08T15:33:15.920Z,8.90
2018-12-08T15:35:45.070Z,8.90
2018-12-08T15:38:14.024Z,8.90
2018-12-08T15:40:42.936Z,8.90
2018-12-08T15:43:11.863Z,9.00
2018-12-08T15:45:40.792Z,9.00
2018-12-08T15:48:09.777Z,9.00
2018-12-08T15:50:38.824Z,9.00
2018-12-08T15:53:07.794Z,9.00
2018-12-08T15:55:36.784Z,9.00
2018-12-08T15:58:05.732Z,9.00
2018-12-08T16:00:34.916Z,9.00
2018-12-08T16:03:04.058Z,9.00
2018-12-08T16:05:33.118Z,9.00
2018-12-08T16:08:02.103Z,9.00
2018-12-08T16:10:31.016Z,9.00
2018-12-08T16:12:59.941Z,9.00
2018-12-08T16:15:28.872Z,9.00
2018-12-08T16:17:57.781Z,9.00
2018-12-08T16:20:26.730Z,9.00
2018-12-08T16:22:55.705Z,9.00
2018-12-08T16:25:24.832Z,9.10
2018-12-08T16:27:53.832Z,9.10
2018-12-08T16:30:22.778Z,9.10
2018-12-08T16:32:51.770Z,8.90
2018-12-08T16:35:20.828Z,8.80
2018-12-08T16:37:56.727Z,8.70
2018-12-08T16:40:20.700Z,8.60
2018-12-08T16:42:49.610Z,8.50
2018-12-08T16:45:18.654Z,8.40
2018-12-08T16:47:47.580Z,8.40
2018-12-08T16:50:16.601Z,8.30
2018-12-08T16:52:45.616Z,8.30
2018-12-08T16:55:14.588Z,8.30
2018-12-08T16:57:43.813Z,8.20
2018-12-08T17:00:13.108Z,8.30
2018-12-08T17:02:42.108Z,8.20
2018-12-08T17:05:11.464Z,8.20
2018-12-08T17:07:40.428Z,8.20
2018-12-08T17:10:09.566Z,8.20
2018-12-08T17:12:38.563Z,8.10
2018-12-08T17:15:07.801Z,8.10
2018-12-08T17:17:37.676Z,8.10
2018-12-08T17:20:09.216Z,8.10
2018-12-08T17:22:38.100Z,8.10
2018-12-08T17:25:07.315Z,8.10
2018-12-08T17:27:36.205Z,8.10
2018-12-08T17:30:06.143Z,8.10
2018-12-08T17:32:35.047Z,8.00
2018-12-08T17:35:04.176Z,8.00
2018-12-08T17:37:33.222Z,8.00
2018-12-08T17:40:02.116Z,8.10
2018-12-08T17:42:32.015Z,8.10
2018-12-08T17:45:00.928Z,8.00
2018-12-08T17:47:29.816Z,8.00
2018-12-08T17:49:58.711Z,8.00
2018-12-08T17:52:27.615Z,8.00
2018-12-08T17:54:56.504Z,8.00
2018-12-08T17:57:25.424Z,8.00
2018-12-08T17:59:54.491Z,8.00
2018-12-08T18:02:23.671Z,8.00
2018-12-08T18:04:52.545Z,8.00
2018-12-08T18:07:21.684Z,8.00
2018-12-08T18:09:50.700Z,8.00
2018-12-08T18:12:19.710Z,7.90
2018-12-08T18:14:48.699Z,7.90
2018-12-08T18:17:17.648Z,7.90
2018-12-08T18:19:46.574Z,7.90
2018-12-08T18:22:15.516Z,7.80
2018-12-08T18:24:44.460Z,7.80
2018-12-08T18:27:13.428Z,7.90
2018-12-08T18:29:42.416Z,7.90
2018-12-08T18:32:11.462Z,8.00
2018-12-08T18:34:40.398Z,8.10
2018-12-08T18:37:09.344Z,8.20
2018-12-08T18:39:38.272Z,8.30
2018-12-08T18:42:07.382Z,8.30
2018-12-08T18:44:36.390Z,8.30
2018-12-08T18:47:06.460Z,8.40
2018-12-08T18:49:35.388Z,8.40
2018-12-08T18:52:04.439Z,8.40
2018-12-08T18:54:33.375Z,8.50
2018-12-08T18:57:02.301Z,8.50
2018-12-08T18:59:31.252Z,8.60
2018-12-08T19:02:00.243Z,8.60
2018-12-08T19:04:29.164Z,8.70
2018-12-08T19:06:58.080Z,8.70
2018-12-08T19:09:26.973Z,8.70
2018-12-08T19:11:55.900Z,8.70
2018-12-08T19:14:24.831Z,8.60
2018-12-08T19:16:53.767Z,8.60
2018-12-08T19:19:22.645Z,8.50
2018-12-08T19:21:51.681Z,8.50
2018-12-08T19:24:20.603Z,8.50
2018-12-08T19:26:49.545Z,8.50
2018-12-08T19:29:18.548Z,8.50
2018-12-08T19:31:47.480Z,8.50
2018-12-08T19:34:16.369Z,8.60
2018-12-08T19:36:45.267Z,8.60
2018-12-08T19:39:15.208Z,8.60
2018-12-08T19:41:44.083Z,8.70
2018-12-08T19:44:13.011Z,8.70
2018-12-08T19:46:42.061Z,8.70
2018-12-08T19:49:10.985Z,8.80
2018-12-08T19:51:39.900Z,8.80
2018-12-08T19:54:08.931Z,8.80
2018-12-08T19:56:37.796Z,8.90
2018-12-08T19:59:06.659Z,8.90
2018-12-08T20:01:35.712Z,8.90
2018-12-08T20:04:04.880Z,8.90
2018-12-08T20:06:33.833Z,9.00
2018-12-08T20:09:02.890Z,9.00
2018-12-08T20:11:32.912Z,9.00
2018-12-08T20:14:01.873Z,9.00
2018-12-08T20:16:30.814Z,9.10
2018-12-08T20:18:59.904Z,9.10
2018-12-08T20:21:28.888Z,9.10
2018-12-08T20:23:57.797Z,9.10
2018-12-08T20:26:26.668Z,9.10
2018-12-08T20:28:55.556Z,9.10
2018-12-08T20:31:24.501Z,9.00
2018-12-08T20:33:53.628Z,8.90
2018-12-08T20:36:22.627Z,8.80
2018-12-08T20:38:51.560Z,8.80
2018-12-08T20:41:20.632Z,8.70
2018-12-08T20:43:49.709Z,8.70
2018-12-08T20:46:18.641Z,8.70
2018-12-08T20:48:47.547Z,8.70
2018-12-08T20:51:16.569Z,8.70
2018-12-08T20:53:45.641Z,8.70
2018-12-08T20:56:14.544Z,8.80
2018-12-08T20:58:43.473Z,8.80
2018-12-08T21:01:12.468Z,8.80
2018-12-08T21:03:41.388Z,8.80
2018-12-08T21:06:10.471Z,8.90
2018-12-08T21:08:39.436Z,8.90
2018-12-08T21:11:08.447Z,8.90
2018-12-08T21:14:05.294Z,9.00
2018-12-08T21:16:56.748Z,9.00
2018-12-08T21:19:25.782Z,9.00
2018-12-08T21:24:54.758Z,9.00
2018-12-08T21:27:37.049Z,9.00
2018-12-08T21:30:07.467Z,9.00
2018-12-08T21:32:36.410Z,9.10
2018-12-08T21:38:03.004Z,9.10
2018-12-08T21:40:31.924Z,9.10
2018-12-08T21:43:01.980Z,9.10
2018-12-08T21:45:31.009Z,9.00
2018-12-08T21:48:00.026Z,9.00
2018-12-08T21:50:29.289Z,9.00
2018-12-08T21:52:58.400Z,8.90
2018-12-08T21:55:27.273Z,8.90
2018-12-08T21:57:56.460Z,8.90
2018-12-08T22:00:25.476Z,8.70
2018-12-08T22:02:54.603Z,8.50
2018-12-08T22:05:23.618Z,8.30
2018-12-08T22:07:52.581Z,8.20
2018-12-08T22:10:21.504Z,8.00
2018-12-08T22:12:50.456Z,8.00
2018-12-08T22:15:19.336Z,7.90
2018-12-08T22:17:48.377Z,7.90
2018-12-08T22:20:17.287Z,7.90
2018-12-08T22:22:46.159Z,7.90
2018-12-08T22:25:15.108Z,7.90
2018-12-08T22:27:44.046Z,7.90
2018-12-08T22:30:13.090Z,7.90
2018-12-08T22:32:41.999Z,7.90
2018-12-08T22:35:12.156Z,7.90
2018-12-08T22:37:41.152Z,8.00
2018-12-08T22:40:10.386Z,8.00
2018-12-08T22:42:39.304Z,8.00
2018-12-08T22:45:08.265Z,8.00
2018-12-08T22:47:43.325Z,7.90
2018-12-08T22:50:30.803Z,7.90
2018-12-08T22:52:59.808Z,8.00
2018-12-08T22:55:28.755Z,8.00
2018-12-08T22:57:57.984Z,8.00
2018-12-08T23:00:46.298Z,8.00
2018-12-08T23:03:15.594Z,8.00
2018-12-08T23:05:44.526Z,8.10
2018-12-08T23:08:13.578Z,8.10
2018-12-08T23:10:42.655Z,8.10
2018-12-08T23:13:13.408Z,8.10
2018-12-08T23:15:42.365Z,8.10
2018-12-08T23:18:11.254Z,8.10
2018-12-08T23:20:40.200Z,8.10
2018-12-08T23:23:09.232Z,8.10
2018-12-08T23:25:38.143Z,8.10
2018-12-08T23:28:12.663Z,8.10
2018-12-08T23:30:41.682Z,8.10
2018-12-08T23:33:10.759Z,8.10
2018-12-08T23:35:40.376Z,8.10
2018-12-08T23:38:09.267Z,8.10
2018-12-08T23:40:38.443Z,8.10
2018-12-08T23:43:08.436Z,8.10
2018-12-08T23:45:37.304Z,8.20
2018-12-08T23:48:06.408Z,8.20
2018-12-08T23:50:35.353Z,8.20
2018-12-08T23:53:04.661Z,8.20
2018-12-08T23:55:33.740Z,8.20
2018-12-08T23:58:02.705Z,8.10
